sensor_id;sensor_type;location;lat;lon;timestamp;temperature;humidity
22249;DHT22;67538;52.180;5.646;2023-02-18T00:01:18;9.60;99.90
22249;DHT22;67538;52.180;5.646;2023-02-18T00:03:46;9.60;99.90
22249;DHT22;67538;52.180;5.646;2023-02-18T00:06:16;9.70;99.90
22249;DHT22;67538;52.180;5.646;2023-02-18T00:08:44;9.70;99.90
22249;DHT22;67538;52.180;5.646;2023-02-18T00:11:11;9.70;99.90
22249;DHT22;67538;52.180;5.646;2023-02-18T00:13:39;9.70;99.90
22249;DHT22;67538;52.180;5.646;2023-02-18T00:16:07;9.70;99.90
22249;DHT22;67538;52.180;5.646;2023-02-18T00:18:34;9.80;99.90
22249;DHT22;67538;52.180;5.646;2023-02-18T00:21:03;9.80;99.90
22249;DHT22;67538;52.180;5.646;2023-02-18T00:23:32;9.80;99.90
22249;DHT22;67538;52.180;5.646;2023-02-18T00:26:00;9.80;99.90
22249;DHT22;67538;52.180;5.646;2023-02-18T00:28:27;9.80;99.90
22249;DHT22;67538;52.180;5.646;2023-02-18T00:30:54;9.80;99.90
22249;DHT22;67538;52.180;5.646;2023-02-18T00:33:21;9.80;99.90
22249;DHT22;67538;52.180;5.646;2023-02-18T00:35:48;9.80;99.90
22249;DHT22;67538;52.180;5.646;2023-02-18T00:38:15;9.80;99.90
22249;DHT22;67538;52.180;5.646;2023-02-18T00:40:44;9.80;99.90
22249;DHT22;67538;52.180;5.646;2023-02-18T00:43:11;9.80;99.90
22249;DHT22;67538;52.180;5.646;2023-02-18T00:45:38;9.70;99.90
22249;DHT22;67538;52.180;5.646;2023-02-18T00:48:05;9.70;99.90
22249;DHT22;67538;52.180;5.646;2023-02-18T00:50:32;9.80;99.90
22249;DHT22;67538;52.180;5.646;2023-02-18T00:52:59;9.70;99.90
22249;DHT22;67538;52.180;5.646;2023-02-18T00:55:26;9.70;99.90
22249;DHT22;67538;52.180;5.646;2023-02-18T00:57:54;9.70;99.90
22249;DHT22;67538;52.180;5.646;2023-02-18T01:00:22;9.70;99.90
22249;DHT22;67538;52.180;5.646;2023-02-18T01:02:50;9.70;99.90
22249;DHT22;67538;52.180;5.646;2023-02-18T01:05:19;9.70;99.90
22249;DHT22;67538;52.180;5.646;2023-02-18T01:07:47;9.70;99.90
22249;DHT22;67538;52.180;5.646;2023-02-18T01:10:14;9.70;99.90
22249;DHT22;67538;52.180;5.646;2023-02-18T01:12:41;9.70;99.90
22249;DHT22;67538;52.180;5.646;2023-02-18T01:15:11;9.70;99.90
22249;DHT22;67538;52.180;5.646;2023-02-18T01:17:40;9.70;99.90
22249;DHT22;67538;52.180;5.646;2023-02-18T01:20:08;9.70;99.90
22249;DHT22;67538;52.180;5.646;2023-02-18T01:22:36;9.70;99.90
22249;DHT22;67538;52.180;5.646;2023-02-18T01:25:03;9.60;99.90
22249;DHT22;67538;52.180;5.646;2023-02-18T01:27:30;9.60;99.90
22249;DHT22;67538;52.180;5.646;2023-02-18T01:29:57;9.60;99.90
22249;DHT22;67538;52.180;5.646;2023-02-18T01:32:26;9.50;99.90
22249;DHT22;67538;52.180;5.646;2023-02-18T01:34:53;9.50;99.90
22249;DHT22;67538;52.180;5.646;2023-02-18T01:37:20;9.50;99.90
22249;DHT22;67538;52.180;5.646;2023-02-18T01:39:47;9.50;99.90
22249;DHT22;67538;52.180;5.646;2023-02-18T01:42:18;9.50;99.90
22249;DHT22;67538;52.180;5.646;2023-02-18T01:44:46;9.40;99.90
22249;DHT22;67538;52.180;5.646;2023-02-18T01:47:14;9.40;99.90
22249;DHT22;67538;52.180;5.646;2023-02-18T01:49:46;9.40;99.90
22249;DHT22;67538;52.180;5.646;2023-02-18T01:52:17;9.40;99.90
22249;DHT22;67538;52.180;5.646;2023-02-18T01:54:48;9.30;99.90
22249;DHT22;67538;52.180;5.646;2023-02-18T01:57:18;9.30;99.90
22249;DHT22;67538;52.180;5.646;2023-02-18T01:59:53;9.30;99.90
22249;DHT22;67538;52.180;5.646;2023-02-18T02:02:25;9.30;99.90
22249;DHT22;67538;52.180;5.646;2023-02-18T02:04:54;9.30;99.90
22249;DHT22;67538;52.180;5.646;2023-02-18T02:07:23;9.20;99.90
22249;DHT22;67538;52.180;5.646;2023-02-18T02:09:52;9.20;99.90
22249;DHT22;67538;52.180;5.646;2023-02-18T02:12:35;9.20;99.90
22249;DHT22;67538;52.180;5.646;2023-02-18T02:15:23;9.20;99.90
22249;DHT22;67538;52.180;5.646;2023-02-18T02:18:08;9.20;99.90
22249;DHT22;67538;52.180;5.646;2023-02-18T02:24:08;9.20;99.90
22249;DHT22;67538;52.180;5.646;2023-02-18T02:27:03;9.20;99.90
22249;DHT22;67538;52.180;5.646;2023-02-18T02:30:05;9.10;99.90
22249;DHT22;67538;52.180;5.646;2023-02-18T02:32:55;9.10;99.90
22249;DHT22;67538;52.180;5.646;2023-02-18T02:35:28;9.10;99.90
22249;DHT22;67538;52.180;5.646;2023-02-18T02:38:02;9.10;99.90
22249;DHT22;67538;52.180;5.646;2023-02-18T02:40:34;9.10;99.90
22249;DHT22;67538;52.180;5.646;2023-02-18T02:43:08;9.10;99.90
22249;DHT22;67538;52.180;5.646;2023-02-18T02:45:47;9.10;99.90
22249;DHT22;67538;52.180;5.646;2023-02-18T02:48:27;9.10;99.90
22249;DHT22;67538;52.180;5.646;2023-02-18T02:51:03;9.10;99.90
22249;DHT22;67538;52.180;5.646;2023-02-18T02:53:35;9.10;99.90
22249;DHT22;67538;52.180;5.646;2023-02-18T02:56:02;9.10;99.90
22249;DHT22;67538;52.180;5.646;2023-02-18T02:58:30;9.10;99.90
22249;DHT22;67538;52.180;5.646;2023-02-18T03:01:11;9.10;99.90
22249;DHT22;67538;52.180;5.646;2023-02-18T03:03:55;9.10;99.90
22249;DHT22;67538;52.180;5.646;2023-02-18T03:06:47;9.10;99.90
22249;DHT22;67538;52.180;5.646;2023-02-18T03:09:23;9.20;99.90
22249;DHT22;67538;52.180;5.646;2023-02-18T03:11:57;9.20;99.90
22249;DHT22;67538;52.180;5.646;2023-02-18T03:14:28;9.20;99.90
22249;DHT22;67538;52.180;5.646;2023-02-18T03:17:00;9.20;99.90
22249;DHT22;67538;52.180;5.646;2023-02-18T03:19:32;9.30;99.90
22249;DHT22;67538;52.180;5.646;2023-02-18T03:22:05;9.30;99.90
22249;DHT22;67538;52.180;5.646;2023-02-18T03:24:35;9.40;99.90
22249;DHT22;67538;52.180;5.646;2023-02-18T03:27:07;9.30;99.90
22249;DHT22;67538;52.180;5.646;2023-02-18T03:29:36;9.40;99.90
22249;DHT22;67538;52.180;5.646;2023-02-18T03:32:05;9.40;99.90
22249;DHT22;67538;52.180;5.646;2023-02-18T03:34:37;9.40;99.90
22249;DHT22;67538;52.180;5.646;2023-02-18T03:37:08;9.50;99.90
22249;DHT22;67538;52.180;5.646;2023-02-18T03:39:36;9.50;99.90
22249;DHT22;67538;52.180;5.646;2023-02-18T03:42:05;9.50;99.90
22249;DHT22;67538;52.180;5.646;2023-02-18T03:44:32;9.60;99.90
22249;DHT22;67538;52.180;5.646;2023-02-18T03:46:59;9.60;99.90
22249;DHT22;67538;52.180;5.646;2023-02-18T03:49:26;9.60;99.90
22249;DHT22;67538;52.180;5.646;2023-02-18T03:51:53;9.70;99.90
22249;DHT22;67538;52.180;5.646;2023-02-18T03:54:22;9.70;99.90
22249;DHT22;67538;52.180;5.646;2023-02-18T03:56:49;9.70;99.90
22249;DHT22;67538;52.180;5.646;2023-02-18T03:59:16;9.70;99.90
22249;DHT22;67538;52.180;5.646;2023-02-18T04:01:43;9.70;99.90
22249;DHT22;67538;52.180;5.646;2023-02-18T04:04:10;9.70;99.90
22249;DHT22;67538;52.180;5.646;2023-02-18T04:06:37;9.70;99.90
22249;DHT22;67538;52.180;5.646;2023-02-18T04:09:04;9.70;99.90
22249;DHT22;67538;52.180;5.646;2023-02-18T04:11:35;9.70;99.90
22249;DHT22;67538;52.180;5.646;2023-02-18T04:14:02;9.80;99.90
22249;DHT22;67538;52.180;5.646;2023-02-18T04:16:29;9.80;99.90
22249;DHT22;67538;52.180;5.646;2023-02-18T04:18:56;9.80;99.90
22249;DHT22;67538;52.180;5.646;2023-02-18T04:21:24;9.80;99.90
22249;DHT22;67538;52.180;5.646;2023-02-18T04:23:51;9.80;99.90
22249;DHT22;67538;52.180;5.646;2023-02-18T04:26:18;9.80;99.90
22249;DHT22;67538;52.180;5.646;2023-02-18T04:28:46;9.80;99.90
22249;DHT22;67538;52.180;5.646;2023-02-18T04:31:13;9.80;99.90
22249;DHT22;67538;52.180;5.646;2023-02-18T04:33:41;9.80;99.90
22249;DHT22;67538;52.180;5.646;2023-02-18T04:36:08;9.90;99.90
22249;DHT22;67538;52.180;5.646;2023-02-18T04:38:35;9.80;99.90
22249;DHT22;67538;52.180;5.646;2023-02-18T04:41:02;9.90;99.90
22249;DHT22;67538;52.180;5.646;2023-02-18T04:43:29;9.90;99.90
22249;DHT22;67538;52.180;5.646;2023-02-18T04:45:58;9.90;99.90
22249;DHT22;67538;52.180;5.646;2023-02-18T04:48:25;10.00;99.90
22249;DHT22;67538;52.180;5.646;2023-02-18T04:50:52;10.00;99.90
22249;DHT22;67538;52.180;5.646;2023-02-18T04:53:19;9.90;99.90
22249;DHT22;67538;52.180;5.646;2023-02-18T04:55:49;10.00;99.90
22249;DHT22;67538;52.180;5.646;2023-02-18T04:58:16;10.00;99.90
22249;DHT22;67538;52.180;5.646;2023-02-18T05:00:43;10.00;99.90
22249;DHT22;67538;52.180;5.646;2023-02-18T05:03:12;10.00;99.90
22249;DHT22;67538;52.180;5.646;2023-02-18T05:05:39;10.00;99.90
22249;DHT22;67538;52.180;5.646;2023-02-18T05:08:07;10.00;99.90
22249;DHT22;67538;52.180;5.646;2023-02-18T05:10:34;10.00;99.90
22249;DHT22;67538;52.180;5.646;2023-02-18T05:13:03;10.00;99.90
22249;DHT22;67538;52.180;5.646;2023-02-18T05:15:30;10.00;99.90
22249;DHT22;67538;52.180;5.646;2023-02-18T05:17:57;10.00;99.90
22249;DHT22;67538;52.180;5.646;2023-02-18T05:20:25;10.00;99.90
22249;DHT22;67538;52.180;5.646;2023-02-18T05:22:52;10.00;99.90
22249;DHT22;67538;52.180;5.646;2023-02-18T05:25:19;10.00;99.90
22249;DHT22;67538;52.180;5.646;2023-02-18T05:27:46;10.00;99.90
22249;DHT22;67538;52.180;5.646;2023-02-18T05:30:14;9.90;99.90
22249;DHT22;67538;52.180;5.646;2023-02-18T05:32:41;10.00;99.90
22249;DHT22;67538;52.180;5.646;2023-02-18T05:35:08;10.00;99.90
22249;DHT22;67538;52.180;5.646;2023-02-18T05:37:37;9.90;99.90
22249;DHT22;67538;52.180;5.646;2023-02-18T05:40:05;9.90;99.90
22249;DHT22;67538;52.180;5.646;2023-02-18T05:42:32;9.90;99.90
22249;DHT22;67538;52.180;5.646;2023-02-18T05:44:59;9.90;99.90
22249;DHT22;67538;52.180;5.646;2023-02-18T05:47:26;9.90;99.90
22249;DHT22;67538;52.180;5.646;2023-02-18T05:49:53;9.90;99.90
22249;DHT22;67538;52.180;5.646;2023-02-18T05:52:21;9.90;99.90
22249;DHT22;67538;52.180;5.646;2023-02-18T05:54:49;9.90;99.90
22249;DHT22;67538;52.180;5.646;2023-02-18T05:57:16;9.90;99.90
22249;DHT22;67538;52.180;5.646;2023-02-18T05:59:43;9.90;99.90
22249;DHT22;67538;52.180;5.646;2023-02-18T06:02:10;9.90;99.90
22249;DHT22;67538;52.180;5.646;2023-02-18T06:04:37;9.90;99.90
22249;DHT22;67538;52.180;5.646;2023-02-18T06:07:05;9.90;99.90
22249;DHT22;67538;52.180;5.646;2023-02-18T06:09:32;9.90;99.90
22249;DHT22;67538;52.180;5.646;2023-02-18T06:12:00;9.90;99.90
22249;DHT22;67538;52.180;5.646;2023-02-18T06:14:27;9.90;99.90
22249;DHT22;67538;52.180;5.646;2023-02-18T06:16:54;9.90;99.90
22249;DHT22;67538;52.180;5.646;2023-02-18T06:19:21;10.00;99.90
22249;DHT22;67538;52.180;5.646;2023-02-18T06:21:48;10.00;99.90
22249;DHT22;67538;52.180;5.646;2023-02-18T06:24:16;9.90;99.90
22249;DHT22;67538;52.180;5.646;2023-02-18T06:26:43;10.00;99.90
22249;DHT22;67538;52.180;5.646;2023-02-18T06:29:11;10.00;99.90
22249;DHT22;67538;52.180;5.646;2023-02-18T06:31:38;10.00;99.90
22249;DHT22;67538;52.180;5.646;2023-02-18T06:34:05;10.00;99.90
22249;DHT22;67538;52.180;5.646;2023-02-18T06:36:32;10.00;99.90
22249;DHT22;67538;52.180;5.646;2023-02-18T06:39:02;10.00;99.90
22249;DHT22;67538;52.180;5.646;2023-02-18T06:41:30;10.00;99.90
22249;DHT22;67538;52.180;5.646;2023-02-18T06:43:56;10.10;99.90
22249;DHT22;67538;52.180;5.646;2023-02-18T06:46:25;10.10;99.90
22249;DHT22;67538;52.180;5.646;2023-02-18T06:48:52;10.10;99.90
22249;DHT22;67538;52.180;5.646;2023-02-18T06:51:19;10.10;99.90
22249;DHT22;67538;52.180;5.646;2023-02-18T06:53:46;10.10;99.90
22249;DHT22;67538;52.180;5.646;2023-02-18T06:56:13;10.10;99.90
22249;DHT22;67538;52.180;5.646;2023-02-18T06:58:40;10.10;99.90
22249;DHT22;67538;52.180;5.646;2023-02-18T07:01:08;10.20;99.90
22249;DHT22;67538;52.180;5.646;2023-02-18T07:03:36;10.20;99.90
22249;DHT22;67538;52.180;5.646;2023-02-18T07:06:04;10.10;99.90
22249;DHT22;67538;52.180;5.646;2023-02-18T07:08:31;10.20;99.90
22249;DHT22;67538;52.180;5.646;2023-02-18T07:11:01;10.10;99.90
22249;DHT22;67538;52.180;5.646;2023-02-18T07:13:28;10.10;99.90
22249;DHT22;67538;52.180;5.646;2023-02-18T07:15:55;10.10;99.90
22249;DHT22;67538;52.180;5.646;2023-02-18T07:18:22;10.10;99.90
22249;DHT22;67538;52.180;5.646;2023-02-18T07:20:50;10.00;99.90
22249;DHT22;67538;52.180;5.646;2023-02-18T07:23:17;10.10;99.90
22249;DHT22;67538;52.180;5.646;2023-02-18T07:25:46;10.00;99.90
22249;DHT22;67538;52.180;5.646;2023-02-18T07:28:13;10.00;99.90
22249;DHT22;67538;52.180;5.646;2023-02-18T07:30:40;10.00;99.90
22249;DHT22;67538;52.180;5.646;2023-02-18T07:33:07;10.00;99.90
22249;DHT22;67538;52.180;5.646;2023-02-18T07:35:34;10.00;99.90
22249;DHT22;67538;52.180;5.646;2023-02-18T07:38:02;10.00;99.90
22249;DHT22;67538;52.180;5.646;2023-02-18T07:40:29;10.00;99.90
22249;DHT22;67538;52.180;5.646;2023-02-18T07:42:56;10.00;99.90
22249;DHT22;67538;52.180;5.646;2023-02-18T07:45:23;10.00;99.90
22249;DHT22;67538;52.180;5.646;2023-02-18T07:47:50;10.00;99.90
22249;DHT22;67538;52.180;5.646;2023-02-18T07:50:18;10.00;99.90
22249;DHT22;67538;52.180;5.646;2023-02-18T07:52:45;10.00;99.90
22249;DHT22;67538;52.180;5.646;2023-02-18T07:55:13;10.00;99.90
22249;DHT22;67538;52.180;5.646;2023-02-18T07:57:40;10.00;99.90
22249;DHT22;67538;52.180;5.646;2023-02-18T08:00:21;10.00;99.90
22249;DHT22;67538;52.180;5.646;2023-02-18T08:02:48;10.00;99.90
22249;DHT22;67538;52.180;5.646;2023-02-18T08:05:15;9.90;99.90
22249;DHT22;67538;52.180;5.646;2023-02-18T08:07:43;9.90;99.90
22249;DHT22;67538;52.180;5.646;2023-02-18T08:10:10;9.90;99.90
22249;DHT22;67538;52.180;5.646;2023-02-18T08:12:38;9.90;99.90
22249;DHT22;67538;52.180;5.646;2023-02-18T08:15:06;9.90;99.90
22249;DHT22;67538;52.180;5.646;2023-02-18T08:17:33;9.90;99.90
22249;DHT22;67538;52.180;5.646;2023-02-18T08:20:00;9.80;99.90
22249;DHT22;67538;52.180;5.646;2023-02-18T08:22:27;9.80;99.90
22249;DHT22;67538;52.180;5.646;2023-02-18T08:24:54;9.80;99.90
22249;DHT22;67538;52.180;5.646;2023-02-18T08:27:22;9.80;99.90
22249;DHT22;67538;52.180;5.646;2023-02-18T08:29:51;9.80;99.90
22249;DHT22;67538;52.180;5.646;2023-02-18T08:32:18;9.80;99.90
22249;DHT22;67538;52.180;5.646;2023-02-18T08:34:45;9.80;99.90
22249;DHT22;67538;52.180;5.646;2023-02-18T08:37:12;9.80;99.90
22249;DHT22;67538;52.180;5.646;2023-02-18T08:39:39;9.80;99.90
22249;DHT22;67538;52.180;5.646;2023-02-18T08:42:06;9.70;99.90
22249;DHT22;67538;52.180;5.646;2023-02-18T08:44:33;9.70;99.90
22249;DHT22;67538;52.180;5.646;2023-02-18T08:47:02;9.70;99.90
22249;DHT22;67538;52.180;5.646;2023-02-18T08:49:29;9.60;99.90
22249;DHT22;67538;52.180;5.646;2023-02-18T08:51:56;9.70;99.90
22249;DHT22;67538;52.180;5.646;2023-02-18T08:54:23;9.60;99.90
22249;DHT22;67538;52.180;5.646;2023-02-18T08:56:53;9.60;99.90
22249;DHT22;67538;52.180;5.646;2023-02-18T08:59:20;9.60;99.90
22249;DHT22;67538;52.180;5.646;2023-02-18T09:01:47;9.60;99.90
22249;DHT22;67538;52.180;5.646;2023-02-18T09:04:16;9.60;99.90
22249;DHT22;67538;52.180;5.646;2023-02-18T09:06:45;9.50;99.90
22249;DHT22;67538;52.180;5.646;2023-02-18T09:09:12;9.50;99.90
22249;DHT22;67538;52.180;5.646;2023-02-18T09:11:40;9.40;99.90
22249;DHT22;67538;52.180;5.646;2023-02-18T09:14:07;9.40;99.90
22249;DHT22;67538;52.180;5.646;2023-02-18T09:16:34;9.40;99.90
22249;DHT22;67538;52.180;5.646;2023-02-18T09:19:03;9.40;99.90
22249;DHT22;67538;52.180;5.646;2023-02-18T09:21:31;9.40;99.90
22249;DHT22;67538;52.180;5.646;2023-02-18T09:23:59;9.40;99.90
22249;DHT22;67538;52.180;5.646;2023-02-18T09:26:26;9.40;99.90
22249;DHT22;67538;52.180;5.646;2023-02-18T09:28:55;9.40;99.90
22249;DHT22;67538;52.180;5.646;2023-02-18T09:31:24;9.40;99.90
22249;DHT22;67538;52.180;5.646;2023-02-18T09:33:53;9.40;99.90
22249;DHT22;67538;52.180;5.646;2023-02-18T09:36:20;9.40;99.90
22249;DHT22;67538;52.180;5.646;2023-02-18T09:38:49;9.50;99.90
22249;DHT22;67538;52.180;5.646;2023-02-18T09:41:26;9.50;99.90
22249;DHT22;67538;52.180;5.646;2023-02-18T09:43:57;9.50;99.90
22249;DHT22;67538;52.180;5.646;2023-02-18T09:46:28;9.50;99.90
22249;DHT22;67538;52.180;5.646;2023-02-18T09:48:56;9.50;99.90
22249;DHT22;67538;52.180;5.646;2023-02-18T09:51:24;9.60;99.90
22249;DHT22;67538;52.180;5.646;2023-02-18T09:53:52;9.60;99.90
22249;DHT22;67538;52.180;5.646;2023-02-18T09:56:25;9.60;99.90
22249;DHT22;67538;52.180;5.646;2023-02-18T09:58:54;9.60;99.90
22249;DHT22;67538;52.180;5.646;2023-02-18T10:01:26;9.60;99.90
22249;DHT22;67538;52.180;5.646;2023-02-18T10:03:57;9.70;99.90
22249;DHT22;67538;52.180;5.646;2023-02-18T10:06:29;9.70;99.90
22249;DHT22;67538;52.180;5.646;2023-02-18T10:09:00;9.70;99.90
22249;DHT22;67538;52.180;5.646;2023-02-18T10:11:29;9.70;99.90
22249;DHT22;67538;52.180;5.646;2023-02-18T10:13:58;9.80;99.90
22249;DHT22;67538;52.180;5.646;2023-02-18T10:16:27;9.80;99.90
22249;DHT22;67538;52.180;5.646;2023-02-18T10:18:57;9.90;99.90
22249;DHT22;67538;52.180;5.646;2023-02-18T10:21:26;9.90;99.90
22249;DHT22;67538;52.180;5.646;2023-02-18T10:24:01;10.00;99.90
22249;DHT22;67538;52.180;5.646;2023-02-18T10:26:32;10.00;99.90
22249;DHT22;67538;52.180;5.646;2023-02-18T10:29:00;10.00;99.90
22249;DHT22;67538;52.180;5.646;2023-02-18T10:31:30;10.10;99.90
22249;DHT22;67538;52.180;5.646;2023-02-18T10:34:03;10.10;99.90
22249;DHT22;67538;52.180;5.646;2023-02-18T10:36:35;10.20;99.90
22249;DHT22;67538;52.180;5.646;2023-02-18T10:39:28;10.20;99.90
22249;DHT22;67538;52.180;5.646;2023-02-18T10:42:08;10.20;99.90
22249;DHT22;67538;52.180;5.646;2023-02-18T10:44:44;10.30;99.90
22249;DHT22;67538;52.180;5.646;2023-02-18T10:47:23;10.30;99.90
22249;DHT22;67538;52.180;5.646;2023-02-18T10:49:57;10.40;99.90
22249;DHT22;67538;52.180;5.646;2023-02-18T10:52:29;10.40;99.90
22249;DHT22;67538;52.180;5.646;2023-02-18T10:55:03;10.40;99.90
22249;DHT22;67538;52.180;5.646;2023-02-18T10:57:32;10.50;99.90
22249;DHT22;67538;52.180;5.646;2023-02-18T11:00:02;10.60;99.90
22249;DHT22;67538;52.180;5.646;2023-02-18T11:02:37;10.70;99.90
22249;DHT22;67538;52.180;5.646;2023-02-18T11:05:17;10.80;99.90
22249;DHT22;67538;52.180;5.646;2023-02-18T11:07:47;11.00;99.90
22249;DHT22;67538;52.180;5.646;2023-02-18T11:10:18;11.30;99.90
22249;DHT22;67538;52.180;5.646;2023-02-18T11:12:50;11.70;99.90
22249;DHT22;67538;52.180;5.646;2023-02-18T11:15:20;11.90;99.90
22249;DHT22;67538;52.180;5.646;2023-02-18T11:17:50;11.90;99.90
22249;DHT22;67538;52.180;5.646;2023-02-18T11:20:26;11.90;99.90
22249;DHT22;67538;52.180;5.646;2023-02-18T11:23:13;11.90;99.90
22249;DHT22;67538;52.180;5.646;2023-02-18T11:25:52;11.90;99.90
22249;DHT22;67538;52.180;5.646;2023-02-18T11:28:28;12.00;99.90
22249;DHT22;67538;52.180;5.646;2023-02-18T11:30:58;12.00;99.90
22249;DHT22;67538;52.180;5.646;2023-02-18T11:33:31;11.90;99.90
22249;DHT22;67538;52.180;5.646;2023-02-18T11:36:04;11.80;99.90
22249;DHT22;67538;52.180;5.646;2023-02-18T11:38:44;11.70;99.90
22249;DHT22;67538;52.180;5.646;2023-02-18T11:41:15;11.60;99.90
22249;DHT22;67538;52.180;5.646;2023-02-18T11:43:46;11.50;99.90
22249;DHT22;67538;52.180;5.646;2023-02-18T11:46:16;11.50;99.90
22249;DHT22;67538;52.180;5.646;2023-02-18T11:48:43;11.40;99.90
22249;DHT22;67538;52.180;5.646;2023-02-18T11:51:18;11.30;99.90
22249;DHT22;67538;52.180;5.646;2023-02-18T11:53:56;11.20;99.90
22249;DHT22;67538;52.180;5.646;2023-02-18T11:56:28;11.10;99.90
22249;DHT22;67538;52.180;5.646;2023-02-18T11:58:56;11.10;99.90
22249;DHT22;67538;52.180;5.646;2023-02-18T12:01:40;11.00;99.90
22249;DHT22;67538;52.180;5.646;2023-02-18T12:04:11;11.00;99.90
22249;DHT22;67538;52.180;5.646;2023-02-18T12:06:45;11.00;99.90
22249;DHT22;67538;52.180;5.646;2023-02-18T12:09:21;10.90;99.90
22249;DHT22;67538;52.180;5.646;2023-02-18T12:11:52;10.90;99.90
22249;DHT22;67538;52.180;5.646;2023-02-18T12:14:22;10.90;99.90
22249;DHT22;67538;52.180;5.646;2023-02-18T12:17:04;10.90;99.90
22249;DHT22;67538;52.180;5.646;2023-02-18T12:19:44;11.00;99.90
22249;DHT22;67538;52.180;5.646;2023-02-18T12:22:18;11.10;99.90
22249;DHT22;67538;52.180;5.646;2023-02-18T12:25:00;11.20;99.90
22249;DHT22;67538;52.180;5.646;2023-02-18T12:27:36;11.30;99.90
22249;DHT22;67538;52.180;5.646;2023-02-18T12:33:19;11.30;99.90
22249;DHT22;67538;52.180;5.646;2023-02-18T12:35:58;11.40;99.90
22249;DHT22;67538;52.180;5.646;2023-02-18T12:38:53;11.40;99.90
22249;DHT22;67538;52.180;5.646;2023-02-18T12:41:42;11.50;99.90
22249;DHT22;67538;52.180;5.646;2023-02-18T12:44:30;11.60;99.90
22249;DHT22;67538;52.180;5.646;2023-02-18T12:47:17;11.70;99.90
22249;DHT22;67538;52.180;5.646;2023-02-18T12:50:24;11.70;99.90
22249;DHT22;67538;52.180;5.646;2023-02-18T12:53:05;11.80;99.90
22249;DHT22;67538;52.180;5.646;2023-02-18T12:55:48;11.80;99.90
22249;DHT22;67538;52.180;5.646;2023-02-18T12:58:26;11.70;99.90
22249;DHT22;67538;52.180;5.646;2023-02-18T13:01:21;11.60;99.90
22249;DHT22;67538;52.180;5.646;2023-02-18T13:04:17;11.60;99.90
22249;DHT22;67538;52.180;5.646;2023-02-18T13:07:25;11.50;99.90
22249;DHT22;67538;52.180;5.646;2023-02-18T13:10:23;11.50;99.90
22249;DHT22;67538;52.180;5.646;2023-02-18T13:12:56;11.50;99.90
22249;DHT22;67538;52.180;5.646;2023-02-18T13:15:32;11.50;99.90
22249;DHT22;67538;52.180;5.646;2023-02-18T13:18:08;11.60;99.90
22249;DHT22;67538;52.180;5.646;2023-02-18T13:20:39;11.70;99.90
22249;DHT22;67538;52.180;5.646;2023-02-18T13:23:16;11.70;99.90
22249;DHT22;67538;52.180;5.646;2023-02-18T13:25:44;11.80;99.90
22249;DHT22;67538;52.180;5.646;2023-02-18T13:28:19;11.80;99.90
22249;DHT22;67538;52.180;5.646;2023-02-18T13:30:51;11.80;99.90
22249;DHT22;67538;52.180;5.646;2023-02-18T13:33:30;11.80;99.90
22249;DHT22;67538;52.180;5.646;2023-02-18T13:36:05;11.80;99.90
22249;DHT22;67538;52.180;5.646;2023-02-18T13:38:57;11.80;99.90
22249;DHT22;67538;52.180;5.646;2023-02-18T13:41:26;11.70;99.90
22249;DHT22;67538;52.180;5.646;2023-02-18T13:43:53;11.70;99.90
22249;DHT22;67538;52.180;5.646;2023-02-18T13:46:21;11.70;99.90
22249;DHT22;67538;52.180;5.646;2023-02-18T13:48:51;11.80;99.90
22249;DHT22;67538;52.180;5.646;2023-02-18T13:51:28;11.80;99.90
22249;DHT22;67538;52.180;5.646;2023-02-18T13:54:00;11.70;99.90
22249;DHT22;67538;52.180;5.646;2023-02-18T13:56:30;11.80;99.90
22249;DHT22;67538;52.180;5.646;2023-02-18T13:59:00;11.70;99.90
22249;DHT22;67538;52.180;5.646;2023-02-18T14:01:37;11.70;99.90
22249;DHT22;67538;52.180;5.646;2023-02-18T14:04:37;11.70;99.90
22249;DHT22;67538;52.180;5.646;2023-02-18T14:07:25;11.80;99.90
22249;DHT22;67538;52.180;5.646;2023-02-18T14:09:53;11.80;99.90
22249;DHT22;67538;52.180;5.646;2023-02-18T14:12:27;11.90;99.90
22249;DHT22;67538;52.180;5.646;2023-02-18T14:15:01;11.90;99.90
22249;DHT22;67538;52.180;5.646;2023-02-18T14:17:49;11.90;99.90
22249;DHT22;67538;52.180;5.646;2023-02-18T14:20:46;12.00;99.90
22249;DHT22;67538;52.180;5.646;2023-02-18T14:26:24;12.00;99.90
22249;DHT22;67538;52.180;5.646;2023-02-18T14:28:55;12.10;99.90
22249;DHT22;67538;52.180;5.646;2023-02-18T14:31:33;12.10;99.90
22249;DHT22;67538;52.180;5.646;2023-02-18T14:37:33;12.20;99.90
22249;DHT22;67538;52.180;5.646;2023-02-18T14:40:16;12.20;99.90
22249;DHT22;67538;52.180;5.646;2023-02-18T14:42:51;12.30;99.90
22249;DHT22;67538;52.180;5.646;2023-02-18T14:45:32;12.20;99.90
22249;DHT22;67538;52.180;5.646;2023-02-18T14:48:26;12.20;99.90
22249;DHT22;67538;52.180;5.646;2023-02-18T14:50:58;12.20;99.90
22249;DHT22;67538;52.180;5.646;2023-02-18T14:53:27;12.20;99.90
22249;DHT22;67538;52.180;5.646;2023-02-18T14:55:58;12.10;99.90
22249;DHT22;67538;52.180;5.646;2023-02-18T14:58:30;12.10;99.90
22249;DHT22;67538;52.180;5.646;2023-02-18T15:01:05;12.20;99.90
22249;DHT22;67538;52.180;5.646;2023-02-18T15:03:32;12.10;99.90
22249;DHT22;67538;52.180;5.646;2023-02-18T15:06:00;12.10;99.90
22249;DHT22;67538;52.180;5.646;2023-02-18T15:08:36;12.10;99.90
22249;DHT22;67538;52.180;5.646;2023-02-18T15:11:04;12.10;99.90
22249;DHT22;67538;52.180;5.646;2023-02-18T15:13:34;12.00;99.90
22249;DHT22;67538;52.180;5.646;2023-02-18T15:16:03;12.00;99.90
22249;DHT22;67538;52.180;5.646;2023-02-18T15:18:34;12.00;99.90
22249;DHT22;67538;52.180;5.646;2023-02-18T15:21:03;12.00;99.90
22249;DHT22;67538;52.180;5.646;2023-02-18T15:23:34;11.90;99.90
22249;DHT22;67538;52.180;5.646;2023-02-18T15:26:02;11.90;99.90
22249;DHT22;67538;52.180;5.646;2023-02-18T15:28:31;11.90;99.90
22249;DHT22;67538;52.180;5.646;2023-02-18T15:31:00;11.90;99.90
22249;DHT22;67538;52.180;5.646;2023-02-18T15:33:28;11.90;99.90
22249;DHT22;67538;52.180;5.646;2023-02-18T15:36:00;11.80;99.90
22249;DHT22;67538;52.180;5.646;2023-02-18T15:38:27;11.80;99.90
22249;DHT22;67538;52.180;5.646;2023-02-18T15:40:55;11.80;99.90
22249;DHT22;67538;52.180;5.646;2023-02-18T15:43:24;11.80;99.90
22249;DHT22;67538;52.180;5.646;2023-02-18T15:45:54;11.80;99.90
22249;DHT22;67538;52.180;5.646;2023-02-18T15:48:29;11.80;99.90
22249;DHT22;67538;52.180;5.646;2023-02-18T15:51:03;11.70;99.90
22249;DHT22;67538;52.180;5.646;2023-02-18T15:53:31;11.70;99.90
22249;DHT22;67538;52.180;5.646;2023-02-18T15:56:05;11.70;99.90
22249;DHT22;67538;52.180;5.646;2023-02-18T15:58:34;11.70;99.90
22249;DHT22;67538;52.180;5.646;2023-02-18T16:01:03;11.70;99.90
22249;DHT22;67538;52.180;5.646;2023-02-18T16:03:43;11.70;99.90
22249;DHT22;67538;52.180;5.646;2023-02-18T16:06:16;11.70;99.90
22249;DHT22;67538;52.180;5.646;2023-02-18T16:08:53;11.60;99.90
22249;DHT22;67538;52.180;5.646;2023-02-18T16:11:23;11.60;99.90
22249;DHT22;67538;52.180;5.646;2023-02-18T16:13:51;11.60;99.90
22249;DHT22;67538;52.180;5.646;2023-02-18T16:16:22;11.60;99.90